sensor_id;sensor_type;location;lat;lon;timestamp;temperature;humidity
4759;DHT22;2393;50.560;12.636;2023-01-04T00:02:00;3.30;99.90
4759;DHT22;2393;50.560;12.636;2023-01-04T00:04:28;3.30;99.90
4759;DHT22;2393;50.560;12.636;2023-01-04T00:06:56;3.30;99.90
4759;DHT22;2393;50.560;12.636;2023-01-04T00:09:24;3.30;99.90
4759;DHT22;2393;50.560;12.636;2023-01-04T00:11:52;3.30;99.90
4759;DHT22;2393;50.560;12.636;2023-01-04T00:14:20;3.30;99.90
4759;DHT22;2393;50.560;12.636;2023-01-04T00:16:48;3.40;99.90
4759;DHT22;2393;50.560;12.636;2023-01-04T00:19:18;3.40;99.90
4759;DHT22;2393;50.560;12.636;2023-01-04T00:21:45;3.50;99.90
4759;DHT22;2393;50.560;12.636;2023-01-04T00:24:13;3.50;99.90
4759;DHT22;2393;50.560;12.636;2023-01-04T00:26:41;3.50;99.90
4759;DHT22;2393;50.560;12.636;2023-01-04T00:29:11;3.60;99.90
4759;DHT22;2393;50.560;12.636;2023-01-04T00:31:40;3.60;99.90
4759;DHT22;2393;50.560;12.636;2023-01-04T00:34:12;3.70;99.90
4759;DHT22;2393;50.560;12.636;2023-01-04T00:36:43;3.70;99.90
4759;DHT22;2393;50.560;12.636;2023-01-04T00:39:13;3.80;99.90
4759;DHT22;2393;50.560;12.636;2023-01-04T00:41:42;3.90;99.90
4759;DHT22;2393;50.560;12.636;2023-01-04T00:44:28;3.90;99.90
4759;DHT22;2393;50.560;12.636;2023-01-04T00:46:57;4.00;99.90
4759;DHT22;2393;50.560;12.636;2023-01-04T00:49:25;4.00;99.90
4759;DHT22;2393;50.560;12.636;2023-01-04T00:51:55;4.10;99.90
4759;DHT22;2393;50.560;12.636;2023-01-04T00:54:24;4.20;99.90
4759;DHT22;2393;50.560;12.636;2023-01-04T00:56:52;4.20;99.90
4759;DHT22;2393;50.560;12.636;2023-01-04T00:59:20;4.20;99.90
4759;DHT22;2393;50.560;12.636;2023-01-04T01:01:49;4.30;99.90
4759;DHT22;2393;50.560;12.636;2023-01-04T01:04:20;4.30;99.90
4759;DHT22;2393;50.560;12.636;2023-01-04T01:06:49;4.30;99.90
4759;DHT22;2393;50.560;12.636;2023-01-04T01:09:19;4.30;99.90
4759;DHT22;2393;50.560;12.636;2023-01-04T01:11:49;4.40;99.90
4759;DHT22;2393;50.560;12.636;2023-01-04T01:14:19;4.40;99.90
4759;DHT22;2393;50.560;12.636;2023-01-04T01:16:47;4.40;99.90
4759;DHT22;2393;50.560;12.636;2023-01-04T01:19:24;4.40;99.90
4759;DHT22;2393;50.560;12.636;2023-01-04T01:21:52;4.40;99.90
4759;DHT22;2393;50.560;12.636;2023-01-04T01:24:21;4.40;99.90
4759;DHT22;2393;50.560;12.636;2023-01-04T01:26:49;4.50;99.90
4759;DHT22;2393;50.560;12.636;2023-01-04T01:29:17;4.50;99.90
4759;DHT22;2393;50.560;12.636;2023-01-04T01:31:46;4.50;99.90
4759;DHT22;2393;50.560;12.636;2023-01-04T01:34:14;4.50;99.90
4759;DHT22;2393;50.560;12.636;2023-01-04T01:36:42;4.50;99.90
4759;DHT22;2393;50.560;12.636;2023-01-04T01:39:10;4.60;99.90
4759;DHT22;2393;50.560;12.636;2023-01-04T01:41:39;4.60;99.90
4759;DHT22;2393;50.560;12.636;2023-01-04T01:47:12;4.60;99.90
4759;DHT22;2393;50.560;12.636;2023-01-04T01:49:41;4.70;99.90
4759;DHT22;2393;50.560;12.636;2023-01-04T01:52:12;4.70;99.90
4759;DHT22;2393;50.560;12.636;2023-01-04T01:54:43;4.70;99.90
4759;DHT22;2393;50.560;12.636;2023-01-04T01:57:16;4.70;99.90
4759;DHT22;2393;50.560;12.636;2023-01-04T01:59:47;4.70;99.90
4759;DHT22;2393;50.560;12.636;2023-01-04T02:02:16;4.70;99.90
4759;DHT22;2393;50.560;12.636;2023-01-04T02:04:48;4.80;99.90
4759;DHT22;2393;50.560;12.636;2023-01-04T02:07:19;4.70;99.90
4759;DHT22;2393;50.560;12.636;2023-01-04T02:09:48;4.80;99.90
4759;DHT22;2393;50.560;12.636;2023-01-04T02:12:18;4.80;99.90
4759;DHT22;2393;50.560;12.636;2023-01-04T02:14:48;4.80;99.90
4759;DHT22;2393;50.560;12.636;2023-01-04T02:17:25;4.90;99.90
4759;DHT22;2393;50.560;12.636;2023-01-04T02:20:16;4.90;99.90
4759;DHT22;2393;50.560;12.636;2023-01-04T02:26:36;4.90;99.90
4759;DHT22;2393;50.560;12.636;2023-01-04T02:32:36;4.90;99.90
4759;DHT22;2393;50.560;12.636;2023-01-04T02:35:14;4.90;99.90
4759;DHT22;2393;50.560;12.636;2023-01-04T02:37:49;4.90;99.90
4759;DHT22;2393;50.560;12.636;2023-01-04T02:40:20;4.90;99.90
4759;DHT22;2393;50.560;12.636;2023-01-04T02:42:56;4.90;99.90
4759;DHT22;2393;50.560;12.636;2023-01-04T02:45:47;4.90;99.90
4759;DHT22;2393;50.560;12.636;2023-01-04T02:48:18;5.00;99.90
4759;DHT22;2393;50.560;12.636;2023-01-04T02:51:03;4.90;99.90
4759;DHT22;2393;50.560;12.636;2023-01-04T02:53:37;5.00;99.90
4759;DHT22;2393;50.560;12.636;2023-01-04T02:56:12;5.00;99.90
4759;DHT22;2393;50.560;12.636;2023-01-04T02:59:08;5.10;99.90
4759;DHT22;2393;50.560;12.636;2023-01-04T03:01:51;5.10;99.90
4759;DHT22;2393;50.560;12.636;2023-01-04T03:04:52;5.10;99.90
4759;DHT22;2393;50.560;12.636;2023-01-04T03:07:47;5.00;99.90
4759;DHT22;2393;50.560;12.636;2023-01-04T03:10:21;5.00;99.90
4759;DHT22;2393;50.560;12.636;2023-01-04T03:13:00;5.00;99.90
4759;DHT22;2393;50.560;12.636;2023-01-04T03:15:33;5.00;99.90
4759;DHT22;2393;50.560;12.636;2023-01-04T03:18:09;5.00;99.90
4759;DHT22;2393;50.560;12.636;2023-01-04T03:20:41;5.00;99.90
4759;DHT22;2393;50.560;12.636;2023-01-04T03:23:14;5.00;99.90
4759;DHT22;2393;50.560;12.636;2023-01-04T03:26:04;5.00;99.90
4759;DHT22;2393;50.560;12.636;2023-01-04T03:28:50;5.00;99.90
4759;DHT22;2393;50.560;12.636;2023-01-04T03:31:41;5.00;99.90
4759;DHT22;2393;50.560;12.636;2023-01-04T03:34:30;5.00;99.90
4759;DHT22;2393;50.560;12.636;2023-01-04T03:37:21;5.00;99.90
4759;DHT22;2393;50.560;12.636;2023-01-04T03:40:09;5.00;99.90
4759;DHT22;2393;50.560;12.636;2023-01-04T03:43:02;5.00;99.90
4759;DHT22;2393;50.560;12.636;2023-01-04T03:45:51;5.00;99.90
4759;DHT22;2393;50.560;12.636;2023-01-04T03:48:42;5.00;99.90
4759;DHT22;2393;50.560;12.636;2023-01-04T03:51:15;5.00;99.90
4759;DHT22;2393;50.560;12.636;2023-01-04T03:53:54;5.10;99.90
4759;DHT22;2393;50.560;12.636;2023-01-04T03:56:24;5.00;99.90
4759;DHT22;2393;50.560;12.636;2023-01-04T03:58:53;5.10;99.90
4759;DHT22;2393;50.560;12.636;2023-01-04T04:01:23;5.00;99.90
4759;DHT22;2393;50.560;12.636;2023-01-04T04:03:52;5.00;99.90
4759;DHT22;2393;50.560;12.636;2023-01-04T04:06:38;5.00;99.90
4759;DHT22;2393;50.560;12.636;2023-01-04T04:09:25;5.00;99.90
4759;DHT22;2393;50.560;12.636;2023-01-04T04:11:53;5.00;99.90
4759;DHT22;2393;50.560;12.636;2023-01-04T04:14:21;5.00;99.90
4759;DHT22;2393;50.560;12.636;2023-01-04T04:16:49;5.00;99.90
4759;DHT22;2393;50.560;12.636;2023-01-04T04:19:17;5.00;99.90
4759;DHT22;2393;50.560;12.636;2023-01-04T04:21:45;5.00;99.90
4759;DHT22;2393;50.560;12.636;2023-01-04T04:24:16;5.00;99.90
4759;DHT22;2393;50.560;12.636;2023-01-04T04:26:45;5.00;99.90
4759;DHT22;2393;50.560;12.636;2023-01-04T04:29:13;4.90;99.90
4759;DHT22;2393;50.560;12.636;2023-01-04T04:31:43;4.90;99.90
4759;DHT22;2393;50.560;12.636;2023-01-04T04:34:11;4.90;99.90
4759;DHT22;2393;50.560;12.636;2023-01-04T04:36:45;4.90;99.90
4759;DHT22;2393;50.560;12.636;2023-01-04T04:39:13;4.90;99.90
4759;DHT22;2393;50.560;12.636;2023-01-04T04:41:41;4.90;99.90
4759;DHT22;2393;50.560;12.636;2023-01-04T04:44:11;4.90;99.90
4759;DHT22;2393;50.560;12.636;2023-01-04T04:46:40;4.90;99.90
4759;DHT22;2393;50.560;12.636;2023-01-04T04:49:09;5.00;99.90
4759;DHT22;2393;50.560;12.636;2023-01-04T04:51:37;5.00;99.90
4759;DHT22;2393;50.560;12.636;2023-01-04T04:54:05;5.10;99.90
4759;DHT22;2393;50.560;12.636;2023-01-04T04:56:34;5.10;99.90
4759;DHT22;2393;50.560;12.636;2023-01-04T04:59:03;5.10;99.90
4759;DHT22;2393;50.560;12.636;2023-01-04T05:01:33;5.20;99.90
4759;DHT22;2393;50.560;12.636;2023-01-04T05:07:21;5.30;99.90
4759;DHT22;2393;50.560;12.636;2023-01-04T05:09:49;5.30;99.90
4759;DHT22;2393;50.560;12.636;2023-01-04T05:12:17;5.30;99.90
4759;DHT22;2393;50.560;12.636;2023-01-04T05:15:03;5.30;99.90
4759;DHT22;2393;50.560;12.636;2023-01-04T05:17:32;5.30;99.90
4759;DHT22;2393;50.560;12.636;2023-01-04T05:20:00;5.30;99.90
4759;DHT22;2393;50.560;12.636;2023-01-04T05:22:28;5.30;99.90
4759;DHT22;2393;50.560;12.636;2023-01-04T05:24:57;5.30;99.90
4759;DHT22;2393;50.560;12.636;2023-01-04T05:27:29;5.20;99.90
4759;DHT22;2393;50.560;12.636;2023-01-04T05:29:57;5.20;99.90
4759;DHT22;2393;50.560;12.636;2023-01-04T05:32:44;5.20;99.90
4759;DHT22;2393;50.560;12.636;2023-01-04T05:35:12;5.10;99.90
4759;DHT22;2393;50.560;12.636;2023-01-04T05:37:41;5.10;99.90
4759;DHT22;2393;50.560;12.636;2023-01-04T05:40:09;5.10;99.90
4759;DHT22;2393;50.560;12.636;2023-01-04T05:42:37;5.10;99.90
4759;DHT22;2393;50.560;12.636;2023-01-04T05:45:06;5.10;99.90
4759;DHT22;2393;50.560;12.636;2023-01-04T05:47:34;5.10;99.90
4759;DHT22;2393;50.560;12.636;2023-01-04T05:50:05;5.10;99.90
4759;DHT22;2393;50.560;12.636;2023-01-04T05:52:33;5.10;99.90
4759;DHT22;2393;50.560;12.636;2023-01-04T05:55:01;5.10;99.90
4759;DHT22;2393;50.560;12.636;2023-01-04T05:57:30;5.10;99.90
4759;DHT22;2393;50.560;12.636;2023-01-04T05:59:58;5.10;99.90
4759;DHT22;2393;50.560;12.636;2023-01-04T06:02:28;5.10;99.90
4759;DHT22;2393;50.560;12.636;2023-01-04T06:04:57;5.10;99.90
4759;DHT22;2393;50.560;12.636;2023-01-04T06:07:27;5.10;99.90
4759;DHT22;2393;50.560;12.636;2023-01-04T06:09:57;5.10;99.90
4759;DHT22;2393;50.560;12.636;2023-01-04T06:12:25;5.20;99.90
4759;DHT22;2393;50.560;12.636;2023-01-04T06:14:55;5.20;99.90
4759;DHT22;2393;50.560;12.636;2023-01-04T06:17:27;5.20;99.90
4759;DHT22;2393;50.560;12.636;2023-01-04T06:19:56;5.20;99.90
4759;DHT22;2393;50.560;12.636;2023-01-04T06:22:32;5.20;99.90
4759;DHT22;2393;50.560;12.636;2023-01-04T06:25:01;5.20;99.90
4759;DHT22;2393;50.560;12.636;2023-01-04T06:27:32;5.20;99.90
4759;DHT22;2393;50.560;12.636;2023-01-04T06:30:04;5.20;99.90
4759;DHT22;2393;50.560;12.636;2023-01-04T06:32:33;5.30;99.90
4759;DHT22;2393;50.560;12.636;2023-01-04T06:35:02;5.20;99.90
4759;DHT22;2393;50.560;12.636;2023-01-04T06:37:32;5.20;99.90
4759;DHT22;2393;50.560;12.636;2023-01-04T06:40:01;5.20;99.90
4759;DHT22;2393;50.560;12.636;2023-01-04T06:42:29;5.20;99.90
4759;DHT22;2393;50.560;12.636;2023-01-04T06:45:13;5.30;99.90
4759;DHT22;2393;50.560;12.636;2023-01-04T06:47:42;5.40;99.90
4759;DHT22;2393;50.560;12.636;2023-01-04T06:50:10;5.40;99.90
4759;DHT22;2393;50.560;12.636;2023-01-04T06:52:40;5.40;99.90
4759;DHT22;2393;50.560;12.636;2023-01-04T06:55:08;5.40;99.90
4759;DHT22;2393;50.560;12.636;2023-01-04T06:57:36;5.50;99.90
4759;DHT22;2393;50.560;12.636;2023-01-04T07:00:31;5.40;99.90
4759;DHT22;2393;50.560;12.636;2023-01-04T07:02:59;5.40;99.90
4759;DHT22;2393;50.560;12.636;2023-01-04T07:05:41;5.40;99.90
4759;DHT22;2393;50.560;12.636;2023-01-04T07:08:11;5.40;99.90
4759;DHT22;2393;50.560;12.636;2023-01-04T07:10:40;5.50;99.90
4759;DHT22;2393;50.560;12.636;2023-01-04T07:13:08;5.50;99.90
4759;DHT22;2393;50.560;12.636;2023-01-04T07:15:36;5.50;99.90
4759;DHT22;2393;50.560;12.636;2023-01-04T07:18:07;5.60;99.90
4759;DHT22;2393;50.560;12.636;2023-01-04T07:20:35;5.60;99.90
4759;DHT22;2393;50.560;12.636;2023-01-04T07:23:03;5.60;99.90
4759;DHT22;2393;50.560;12.636;2023-01-04T07:25:33;5.60;99.90
4759;DHT22;2393;50.560;12.636;2023-01-04T07:28:01;5.60;99.90
4759;DHT22;2393;50.560;12.636;2023-01-04T07:30:29;5.70;99.90
4759;DHT22;2393;50.560;12.636;2023-01-04T07:32:57;5.60;99.90
4759;DHT22;2393;50.560;12.636;2023-01-04T07:35:26;5.70;99.90
4759;DHT22;2393;50.560;12.636;2023-01-04T07:37:54;5.70;99.90
4759;DHT22;2393;50.560;12.636;2023-01-04T07:40:25;5.70;99.90
4759;DHT22;2393;50.560;12.636;2023-01-04T07:42:56;5.70;99.90
4759;DHT22;2393;50.560;12.636;2023-01-04T07:45:25;5.70;99.90
4759;DHT22;2393;50.560;12.636;2023-01-04T07:47:54;5.70;99.90
4759;DHT22;2393;50.560;12.636;2023-01-04T07:50:21;5.70;99.90
4759;DHT22;2393;50.560;12.636;2023-01-04T07:52:49;5.70;99.90
4759;DHT22;2393;50.560;12.636;2023-01-04T07:55:17;5.80;99.90
4759;DHT22;2393;50.560;12.636;2023-01-04T07:57:45;5.80;99.90
4759;DHT22;2393;50.560;12.636;2023-01-04T08:00:15;5.80;99.90
4759;DHT22;2393;50.560;12.636;2023-01-04T08:02:43;5.80;99.90
4759;DHT22;2393;50.560;12.636;2023-01-04T08:05:12;5.80;99.90
4759;DHT22;2393;50.560;12.636;2023-01-04T08:07:40;5.70;99.90
4759;DHT22;2393;50.560;12.636;2023-01-04T08:10:08;5.60;99.90
4759;DHT22;2393;50.560;12.636;2023-01-04T08:12:36;5.60;99.90
4759;DHT22;2393;50.560;12.636;2023-01-04T08:15:05;5.50;99.90
4759;DHT22;2393;50.560;12.636;2023-01-04T08:17:34;5.50;99.90
4759;DHT22;2393;50.560;12.636;2023-01-04T08:20:03;5.40;99.90
4759;DHT22;2393;50.560;12.636;2023-01-04T08:22:31;5.50;99.90
4759;DHT22;2393;50.560;12.636;2023-01-04T08:24:59;5.40;99.90
4759;DHT22;2393;50.560;12.636;2023-01-04T08:27:27;5.40;99.90
4759;DHT22;2393;50.560;12.636;2023-01-04T08:29:55;5.40;99.90
4759;DHT22;2393;50.560;12.636;2023-01-04T08:32:25;5.30;99.90
4759;DHT22;2393;50.560;12.636;2023-01-04T08:35:00;5.30;99.90
4759;DHT22;2393;50.560;12.636;2023-01-04T08:37:31;5.30;99.90
4759;DHT22;2393;50.560;12.636;2023-01-04T08:40:02;5.30;99.90
4759;DHT22;2393;50.560;12.636;2023-01-04T08:42:30;5.30;99.90
4759;DHT22;2393;50.560;12.636;2023-01-04T08:45:03;5.20;99.90
4759;DHT22;2393;50.560;12.636;2023-01-04T08:47:36;5.20;99.90
4759;DHT22;2393;50.560;12.636;2023-01-04T08:50:14;5.20;99.90
4759;DHT22;2393;50.560;12.636;2023-01-04T08:52:46;5.20;99.90
4759;DHT22;2393;50.560;12.636;2023-01-04T08:55:22;5.30;99.90
4759;DHT22;2393;50.560;12.636;2023-01-04T08:57:50;5.30;99.90
4759;DHT22;2393;50.560;12.636;2023-01-04T09:00:24;5.30;99.90
4759;DHT22;2393;50.560;12.636;2023-01-04T09:02:52;5.20;99.90
4759;DHT22;2393;50.560;12.636;2023-01-04T09:05:23;5.20;99.90
4759;DHT22;2393;50.560;12.636;2023-01-04T09:07:58;5.20;99.90
4759;DHT22;2393;50.560;12.636;2023-01-04T09:10:46;5.30;99.90
4759;DHT22;2393;50.560;12.636;2023-01-04T09:13:44;5.30;99.90
4759;DHT22;2393;50.560;12.636;2023-01-04T09:16:14;5.30;99.90
4759;DHT22;2393;50.560;12.636;2023-01-04T09:18:44;5.30;99.90
4759;DHT22;2393;50.560;12.636;2023-01-04T09:21:16;5.30;99.90
4759;DHT22;2393;50.560;12.636;2023-01-04T09:23:45;5.40;99.90
4759;DHT22;2393;50.560;12.636;2023-01-04T09:26:15;5.50;99.90
4759;DHT22;2393;50.560;12.636;2023-01-04T09:28:54;5.50;99.90
4759;DHT22;2393;50.560;12.636;2023-01-04T09:31:35;5.60;99.90
4759;DHT22;2393;50.560;12.636;2023-01-04T09:34:09;5.70;99.90
4759;DHT22;2393;50.560;12.636;2023-01-04T09:36:52;5.80;99.90
4759;DHT22;2393;50.560;12.636;2023-01-04T09:39:23;5.80;99.90
4759;DHT22;2393;50.560;12.636;2023-01-04T09:41:59;5.80;99.90
4759;DHT22;2393;50.560;12.636;2023-01-04T09:44:37;5.90;99.90
4759;DHT22;2393;50.560;12.636;2023-01-04T09:47:36;5.80;99.90
4759;DHT22;2393;50.560;12.636;2023-01-04T09:50:23;5.80;99.90
4759;DHT22;2393;50.560;12.636;2023-01-04T09:52:59;5.80;99.90
4759;DHT22;2393;50.560;12.636;2023-01-04T09:55:33;5.80;99.90
4759;DHT22;2393;50.560;12.636;2023-01-04T09:58:16;5.70;99.90
4759;DHT22;2393;50.560;12.636;2023-01-04T10:00:51;5.70;99.90
4759;DHT22;2393;50.560;12.636;2023-01-04T10:03:24;5.70;99.90
4759;DHT22;2393;50.560;12.636;2023-01-04T10:05:55;5.60;99.90
4759;DHT22;2393;50.560;12.636;2023-01-04T10:08:24;5.70;99.90
4759;DHT22;2393;50.560;12.636;2023-01-04T10:11:05;5.60;99.90
4759;DHT22;2393;50.560;12.636;2023-01-04T10:13:47;5.60;99.90
4759;DHT22;2393;50.560;12.636;2023-01-04T10:16:27;5.60;99.90
4759;DHT22;2393;50.560;12.636;2023-01-04T10:19:30;5.50;99.90
4759;DHT22;2393;50.560;12.636;2023-01-04T10:22:25;5.50;99.90
4759;DHT22;2393;50.560;12.636;2023-01-04T10:25:02;5.60;99.90
4759;DHT22;2393;50.560;12.636;2023-01-04T10:27:40;5.60;99.90
4759;DHT22;2393;50.560;12.636;2023-01-04T10:30:23;5.60;99.90
4759;DHT22;2393;50.560;12.636;2023-01-04T10:32:55;5.60;99.90
4759;DHT22;2393;50.560;12.636;2023-01-04T10:35:26;5.70;99.90
4759;DHT22;2393;50.560;12.636;2023-01-04T10:37:57;5.70;99.90
4759;DHT22;2393;50.560;12.636;2023-01-04T10:40:28;5.80;99.90
4759;DHT22;2393;50.560;12.636;2023-01-04T10:43:01;5.80;99.90
4759;DHT22;2393;50.560;12.636;2023-01-04T10:45:36;5.90;99.90
4759;DHT22;2393;50.560;12.636;2023-01-04T10:48:11;5.90;99.90
4759;DHT22;2393;50.560;12.636;2023-01-04T10:50:47;6.00;99.90
4759;DHT22;2393;50.560;12.636;2023-01-04T10:53:19;6.10;99.90
4759;DHT22;2393;50.560;12.636;2023-01-04T10:55:53;6.20;99.90
4759;DHT22;2393;50.560;12.636;2023-01-04T10:58:48;6.20;99.90
4759;DHT22;2393;50.560;12.636;2023-01-04T11:01:21;6.30;99.90
4759;DHT22;2393;50.560;12.636;2023-01-04T11:03:54;6.30;99.90
4759;DHT22;2393;50.560;12.636;2023-01-04T11:06:27;6.30;99.90
4759;DHT22;2393;50.560;12.636;2023-01-04T11:08:59;6.30;99.90
4759;DHT22;2393;50.560;12.636;2023-01-04T11:11:34;6.30;99.90
4759;DHT22;2393;50.560;12.636;2023-01-04T11:14:02;6.30;99.90
4759;DHT22;2393;50.560;12.636;2023-01-04T11:16:31;6.40;99.90
4759;DHT22;2393;50.560;12.636;2023-01-04T11:18:59;6.40;99.90
4759;DHT22;2393;50.560;12.636;2023-01-04T11:21:34;6.40;99.90
4759;DHT22;2393;50.560;12.636;2023-01-04T11:24:05;6.40;99.90
4759;DHT22;2393;50.560;12.636;2023-01-04T11:26:56;6.40;99.90
4759;DHT22;2393;50.560;12.636;2023-01-04T11:29:31;6.40;99.90
4759;DHT22;2393;50.560;12.636;2023-01-04T11:32:04;6.40;99.90
4759;DHT22;2393;50.560;12.636;2023-01-04T11:34:49;6.50;99.90
4759;DHT22;2393;50.560;12.636;2023-01-04T11:37:29;6.40;99.90
4759;DHT22;2393;50.560;12.636;2023-01-04T11:40:26;6.40;99.90
4759;DHT22;2393;50.560;12.636;2023-01-04T11:46:02;6.40;99.90
4759;DHT22;2393;50.560;12.636;2023-01-04T11:48:33;6.40;99.90
4759;DHT22;2393;50.560;12.636;2023-01-04T11:51:02;6.50;99.90
4759;DHT22;2393;50.560;12.636;2023-01-04T11:53:32;6.40;99.90
4759;DHT22;2393;50.560;12.636;2023-01-04T11:56:16;6.50;99.90
4759;DHT22;2393;50.560;12.636;2023-01-04T11:59:05;6.50;99.90
4759;DHT22;2393;50.560;12.636;2023-01-04T12:01:40;6.50;99.90
4759;DHT22;2393;50.560;12.636;2023-01-04T12:04:13;6.50;99.90
4759;DHT22;2393;50.560;12.636;2023-01-04T12:06:48;6.50;99.90
4759;DHT22;2393;50.560;12.636;2023-01-04T12:09:18;6.40;99.90
4759;DHT22;2393;50.560;12.636;2023-01-04T12:11:49;6.50;99.90
4759;DHT22;2393;50.560;12.636;2023-01-04T12:14:21;6.50;99.90
4759;DHT22;2393;50.560;12.636;2023-01-04T12:17:03;6.50;99.90
4759;DHT22;2393;50.560;12.636;2023-01-04T12:19:34;6.50;99.90
4759;DHT22;2393;50.560;12.636;2023-01-04T12:22:03;6.50;99.90
4759;DHT22;2393;50.560;12.636;2023-01-04T12:24:43;6.50;99.90
4759;DHT22;2393;50.560;12.636;2023-01-04T12:27:13;6.50;99.90
4759;DHT22;2393;50.560;12.636;2023-01-04T12:29:45;6.60;99.90
4759;DHT22;2393;50.560;12.636;2023-01-04T12:32:44;6.60;99.90
4759;DHT22;2393;50.560;12.636;2023-01-04T12:42:15;6.80;99.90
4759;DHT22;2393;50.560;12.636;2023-01-04T12:45:14;6.80;99.90
4759;DHT22;2393;50.560;12.636;2023-01-04T12:47:46;6.80;99.90
4759;DHT22;2393;50.560;12.636;2023-01-04T12:50:31;6.80;99.90
4759;DHT22;2393;50.560;12.636;2023-01-04T12:53:08;6.80;99.90
4759;DHT22;2393;50.560;12.636;2023-01-04T12:55:57;6.80;99.90
4759;DHT22;2393;50.560;12.636;2023-01-04T13:02:16;6.80;99.90
4759;DHT22;2393;50.560;12.636;2023-01-04T13:04:45;6.80;99.90
4759;DHT22;2393;50.560;12.636;2023-01-04T13:07:18;6.80;99.90
4759;DHT22;2393;50.560;12.636;2023-01-04T13:09:52;6.80;99.90
4759;DHT22;2393;50.560;12.636;2023-01-04T13:12:41;6.90;99.90
4759;DHT22;2393;50.560;12.636;2023-01-04T13:15:17;6.90;99.90
4759;DHT22;2393;50.560;12.636;2023-01-04T13:17:47;6.90;99.90
4759;DHT22;2393;50.560;12.636;2023-01-04T13:20:19;6.90;99.90
4759;DHT22;2393;50.560;12.636;2023-01-04T13:22:50;6.90;99.90
4759;DHT22;2393;50.560;12.636;2023-01-04T13:25:20;6.90;99.90
4759;DHT22;2393;50.560;12.636;2023-01-04T13:27:57;6.90;99.90
4759;DHT22;2393;50.560;12.636;2023-01-04T13:30:31;6.90;99.90
4759;DHT22;2393;50.560;12.636;2023-01-04T13:33:07;6.80;99.90
4759;DHT22;2393;50.560;12.636;2023-01-04T13:36:01;6.80;99.90
4759;DHT22;2393;50.560;12.636;2023-01-04T13:38:32;6.80;99.90
4759;DHT22;2393;50.560;12.636;2023-01-04T13:41:02;6.80;99.90
4759;DHT22;2393;50.560;12.636;2023-01-04T13:43:46;6.80;99.90
4759;DHT22;2393;50.560;12.636;2023-01-04T13:46:21;6.80;99.90
4759;DHT22;2393;50.560;12.636;2023-01-04T13:48:51;6.80;99.90
4759;DHT22;2393;50.560;12.636;2023-01-04T13:51:24;6.80;99.90
4759;DHT22;2393;50.560;12.636;2023-01-04T13:54:04;6.80;99.90
4759;DHT22;2393;50.560;12.636;2023-01-04T13:56:34;6.70;99.90
4759;DHT22;2393;50.560;12.636;2023-01-04T13:59:02;6.80;99.90
4759;DHT22;2393;50.560;12.636;2023-01-04T14:01:31;6.80;99.90
4759;DHT22;2393;50.560;12.636;2023-01-04T14:04:01;6.80;99.90
4759;DHT22;2393;50.560;12.636;2023-01-04T14:06:33;6.80;99.90
4759;DHT22;2393;50.560;12.636;2023-01-04T14:09:13;6.80;99.90
4759;DHT22;2393;50.560;12.636;2023-01-04T14:11:43;6.90;99.90
4759;DHT22;2393;50.560;12.636;2023-01-04T14:14:50;6.90;99.90
4759;DHT22;2393;50.560;12.636;2023-01-04T14:17:32;6.90;99.90
4759;DHT22;2393;50.560;12.636;2023-01-04T14:20:01;7.00;99.90
4759;DHT22;2393;50.560;12.636;2023-01-04T14:22:40;6.90;99.90
4759;DHT22;2393;50.560;12.636;2023-01-04T14:25:35;7.00;99.90
4759;DHT22;2393;50.560;12.636;2023-01-04T14:28:18;7.00;99.90
4759;DHT22;2393;50.560;12.636;2023-01-04T14:30:48;7.10;99.90
4759;DHT22;2393;50.560;12.636;2023-01-04T14:33:18;7.10;99.90
4759;DHT22;2393;50.560;12.636;2023-01-04T14:36:00;7.10;99.90
4759;DHT22;2393;50.560;12.636;2023-01-04T14:38:34;7.10;99.90
4759;DHT22;2393;50.560;12.636;2023-01-04T14:41:10;7.10;99.90
4759;DHT22;2393;50.560;12.636;2023-01-04T14:43:44;7.10;99.90
4759;DHT22;2393;50.560;12.636;2023-01-04T14:46:12;7.10;99.90
4759;DHT22;2393;50.560;12.636;2023-01-04T14:48:40;7.20;99.90
4759;DHT22;2393;50.560;12.636;2023-01-04T14:51:11;7.20;99.90
4759;DHT22;2393;50.560;12.636;2023-01-04T14:53:43;7.10;99.90
4759;DHT22;2393;50.560;12.636;2023-01-04T14:56:12;7.20;99.90
4759;DHT22;2393;50.560;12.636;2023-01-04T14:58:41;7.20;99.90
4759;DHT22;2393;50.560;12.636;2023-01-04T15:01:10;7.20;99.90
4759;DHT22;2393;50.560;12.636;2023-01-04T15:03:38;7.30;99.90
4759;DHT22;2393;50.560;12.636;2023-01-04T15:06:09;7.20;99.90
4759;DHT22;2393;50.560;12.636;2023-01-04T15:08:37;7.30;99.90
4759;DHT22;2393;50.560;12.636;2023-01-04T15:11:06;7.20;99.90
4759;DHT22;2393;50.560;12.636;2023-01-04T15:13:36;7.20;99.90
4759;DHT22;2393;50.560;12.636;2023-01-04T15:16:08;7.20;99.90
4759;DHT22;2393;50.560;12.636;2023-01-04T15:18:36;7.20;99.90
4759;DHT22;2393;50.560;12.636;2023-01-04T15:21:05;7.20;99.90
4759;DHT22;2393;50.560;12.636;2023-01-04T15:23:33;7.20;99.90
4759;DHT22;2393;50.560;12.636;2023-01-04T15:26:03;7.20;99.90
4759;DHT22;2393;50.560;12.636;2023-01-04T15:28:35;7.20;99.90
4759;DHT22;2393;50.560;12.636;2023-01-04T15:31:08;7.10;99.90
4759;DHT22;2393;50.560;12.636;2023-01-04T15:33:37;7.10;99.90
4759;DHT22;2393;50.560;12.636;2023-01-04T15:36:12;7.00;99.90
4759;DHT22;2393;50.560;12.636;2023-01-04T15:38:52;6.90;99.90
4759;DHT22;2393;50.560;12.636;2023-01-04T15:41:33;7.00;99.90
4759;DHT22;2393;50.560;12.636;2023-01-04T15:44:20;7.00;99.90
4759;DHT22;2393;50.560;12.636;2023-01-04T15:46:48;7.00;99.90
4759;DHT22;2393;50.560;12.636;2023-01-04T15:49:22;7.10;99.90
4759;DHT22;2393;50.560;12.636;2023-01-04T15:51:54;7.10;99.90
4759;DHT22;2393;50.560;12.636;2023-01-04T15:54:23;7.10;99.90
4759;DHT22;2393;50.560;12.636;2023-01-04T15:57:00;7.20;99.90
4759;DHT22;2393;50.560;12.636;2023-01-04T15:59:39;7.20;99.90
4759;DHT22;2393;50.560;12.636;2023-01-04T16:02:19;7.20;99.90
4759;DHT22;2393;50.560;12.636;2023-01-04T16:04:51;7.20;99.90
4759;DHT22;2393;50.560;12.636;2023-01-04T16:07:41;7.20;99.90
4759;DHT22;2393;50.560;12.636;2023-01-04T16:10:26;7.20;99.90
4759;DHT22;2393;50.560;12.636;2023-01-04T16:12:57;7.30;99.90
4759;DHT22;2393;50.560;12.636;2023-01-04T16:19:16;7.30;99.90
4759;DHT22;2393;50.560;12.636;2023-01-04T16:21:57;7.40;99.90
4759;DHT22;2393;50.560;12.636;2023-01-04T16:25:04;7.30;99.90
4759;DHT22;2393;50.560;12.636;2023-01-04T16:27:38;7.40;99.90
4759;DHT22;2393;50.560;12.636;2023-01-04T16:30:12;7.40;99.90
4759;DHT22;2393;50.560;12.636;2023-01-04T16:33:03;7.40;99.90
4759;DHT22;2393;50.560;12.636;2023-01-04T16:35:36;7.50;99.90
4759;DHT22;2393;50.560;12.636;2023-01-04T16:38:19;7.50;99.90
4759;DHT22;2393;50.560;12.636;2023-01-04T16:41:05;7.60;99.90
4759;DHT22;2393;50.560;12.636;2023-01-04T16:43:42;7.60;99.90
4759;DHT22;2393;50.560;12.636;2023-01-04T16:46:32;7.60;99.90
4759;DHT22;2393;50.560;12.636;2023-01-04T16:49:05;7.70;99.90
4759;DHT22;2393;50.560;12.636;2023-01-04T16:51:43;7.70;99.90
4759;DHT22;2393;50.560;12.636;2023-01-04T16:54:29;7.70;99.90
4759;DHT22;2393;50.560;12.636;2023-01-04T16:57:02;7.80;99.90
4759;DHT22;2393;50.560;12.636;2023-01-04T16:59:36;7.80;99.90
4759;DHT22;2393;50.560;12.636;2023-01-04T17:02:18;7.80;99.90
4759;DHT22;2393;50.560;12.636;2023-01-04T17:04:50;7.90;99.90
4759;DHT22;2393;50.560;12.636;2023-01-04T17:07:27;7.90;99.90
4759;DHT22;2393;50.560;12.636;2023-01-04T17:10:00;7.90;99.90
4759;DHT22;2393;50.560;12.636;2023-01-04T17:12:32;8.00;99.90
4759;DHT22;2393;50.560;12.636;2023-01-04T17:15:17;8.00;99.90
4759;DHT22;2393;50.560;12.636;2023-01-04T17:18:09;8.00;99.90